sensor_id;sensor_type;location;lat;lon;timestamp;temperature;humidity
16313;DHT22;8265;52.622;13.296;2023-07-31T00:02:55;13.30;95.90
16313;DHT22;8265;52.622;13.296;2023-07-31T00:08:16;13.10;95.80
16313;DHT22;8265;52.622;13.296;2023-07-31T00:13:36;13.10;96.00
16313;DHT22;8265;52.622;13.296;2023-07-31T00:18:57;13.00;96.40
16313;DHT22;8265;52.622;13.296;2023-07-31T00:24:19;12.90;96.70
16313;DHT22;8265;52.622;13.296;2023-07-31T00:29:40;12.90;97.10
16313;DHT22;8265;52.622;13.296;2023-07-31T00:35:01;12.90;97.30
16313;DHT22;8265;52.622;13.296;2023-07-31T00:40:22;13.00;97.70
16313;DHT22;8265;52.622;13.296;2023-07-31T00:45:43;13.00;97.80
16313;DHT22;8265;52.622;13.296;2023-07-31T00:51:04;13.00;98.00
16313;DHT22;8265;52.622;13.296;2023-07-31T00:56:25;13.10;98.20
16313;DHT22;8265;52.622;13.296;2023-07-31T01:01:46;13.10;98.20
16313;DHT22;8265;52.622;13.296;2023-07-31T01:07:24;13.20;98.20
16313;DHT22;8265;52.622;13.296;2023-07-31T01:12:28;13.30;98.20
16313;DHT22;8265;52.622;13.296;2023-07-31T01:17:48;13.30;97.90
16313;DHT22;8265;52.622;13.296;2023-07-31T01:33:53;13.50;97.20
16313;DHT22;8265;52.622;13.296;2023-07-31T01:39:12;13.50;97.00
16313;DHT22;8265;52.622;13.296;2023-07-31T01:44:33;13.60;97.10
16313;DHT22;8265;52.622;13.296;2023-07-31T01:49:54;13.60;97.30
16313;DHT22;8265;52.622;13.296;2023-07-31T01:55:15;13.60;97.20
16313;DHT22;8265;52.622;13.296;2023-07-31T02:00:36;13.60;97.10
16313;DHT22;8265;52.622;13.296;2023-07-31T02:05:57;13.60;97.20
16313;DHT22;8265;52.622;13.296;2023-07-31T02:11:19;13.70;97.20
16313;DHT22;8265;52.622;13.296;2023-07-31T02:16:40;13.70;97.70
16313;DHT22;8265;52.622;13.296;2023-07-31T02:22:00;13.70;97.80
16313;DHT22;8265;52.622;13.296;2023-07-31T02:27:21;13.60;97.90
16313;DHT22;8265;52.622;13.296;2023-07-31T02:32:43;13.70;98.20
16313;DHT22;8265;52.622;13.296;2023-07-31T02:38:04;13.80;98.60
16313;DHT22;8265;52.622;13.296;2023-07-31T02:43:25;13.90;98.90
16313;DHT22;8265;52.622;13.296;2023-07-31T02:48:46;13.90;99.00
16313;DHT22;8265;52.622;13.296;2023-07-31T02:54:07;13.80;98.70
16313;DHT22;8265;52.622;13.296;2023-07-31T02:59:28;13.80;98.80
16313;DHT22;8265;52.622;13.296;2023-07-31T03:04:49;13.90;99.00
16313;DHT22;8265;52.622;13.296;2023-07-31T03:10:10;13.90;98.80
16313;DHT22;8265;52.622;13.296;2023-07-31T03:15:31;13.90;98.60
16313;DHT22;8265;52.622;13.296;2023-07-31T03:20:51;13.90;98.80
16313;DHT22;8265;52.622;13.296;2023-07-31T03:26:12;13.90;98.70
16313;DHT22;8265;52.622;13.296;2023-07-31T03:31:33;13.90;98.80
16313;DHT22;8265;52.622;13.296;2023-07-31T03:36:54;13.90;98.70
16313;DHT22;8265;52.622;13.296;2023-07-31T03:42:15;13.90;98.90
16313;DHT22;8265;52.622;13.296;2023-07-31T03:47:36;13.90;98.90
16313;DHT22;8265;52.622;13.296;2023-07-31T03:52:57;14.00;99.00
16313;DHT22;8265;52.622;13.296;2023-07-31T03:58:18;13.90;98.90
16313;DHT22;8265;52.622;13.296;2023-07-31T04:03:39;14.00;98.90
16313;DHT22;8265;52.622;13.296;2023-07-31T04:09:01;14.00;98.80
16313;DHT22;8265;52.622;13.296;2023-07-31T04:14:21;14.00;98.40
16313;DHT22;8265;52.622;13.296;2023-07-31T04:19:42;14.10;98.00
16313;DHT22;8265;52.622;13.296;2023-07-31T04:25:03;14.10;97.80
16313;DHT22;8265;52.622;13.296;2023-07-31T04:30:24;14.20;97.50
16313;DHT22;8265;52.622;13.296;2023-07-31T04:35:52;14.20;97.20
16313;DHT22;8265;52.622;13.296;2023-07-31T04:41:06;14.10;96.70
16313;DHT22;8265;52.622;13.296;2023-07-31T04:46:27;14.10;96.90
16313;DHT22;8265;52.622;13.296;2023-07-31T04:51:48;14.20;97.10
16313;DHT22;8265;52.622;13.296;2023-07-31T04:57:09;14.20;97.00
16313;DHT22;8265;52.622;13.296;2023-07-31T05:02:30;14.20;97.10
16313;DHT22;8265;52.622;13.296;2023-07-31T05:07:51;14.30;97.00
16313;DHT22;8265;52.622;13.296;2023-07-31T05:13:12;14.40;97.20
16313;DHT22;8265;52.622;13.296;2023-07-31T05:18:33;14.40;96.60
16313;DHT22;8265;52.622;13.296;2023-07-31T05:23:54;14.50;96.90
16313;DHT22;8265;52.622;13.296;2023-07-31T05:29:15;14.60;96.90
16313;DHT22;8265;52.622;13.296;2023-07-31T05:34:36;14.70;96.70
16313;DHT22;8265;52.622;13.296;2023-07-31T05:39:57;14.80;95.90
16313;DHT22;8265;52.622;13.296;2023-07-31T05:45:18;14.90;95.90
16313;DHT22;8265;52.622;13.296;2023-07-31T05:50:39;15.00;96.10
16313;DHT22;8265;52.622;13.296;2023-07-31T05:56:00;15.00;96.00
16313;DHT22;8265;52.622;13.296;2023-07-31T06:01:21;15.10;95.00
16313;DHT22;8265;52.622;13.296;2023-07-31T06:06:42;15.10;95.70
16313;DHT22;8265;52.622;13.296;2023-07-31T06:12:04;15.20;94.90
16313;DHT22;8265;52.622;13.296;2023-07-31T06:17:24;15.20;94.90
16313;DHT22;8265;52.622;13.296;2023-07-31T06:22:45;15.20;94.50
16313;DHT22;8265;52.622;13.296;2023-07-31T06:28:06;15.30;94.60
16313;DHT22;8265;52.622;13.296;2023-07-31T06:33:28;15.40;95.40
16313;DHT22;8265;52.622;13.296;2023-07-31T06:38:48;15.60;94.60
16313;DHT22;8265;52.622;13.296;2023-07-31T06:44:10;15.80;94.50
16313;DHT22;8265;52.622;13.296;2023-07-31T06:49:30;16.00;94.40
16313;DHT22;8265;52.622;13.296;2023-07-31T06:55:15;15.80;92.70
16313;DHT22;8265;52.622;13.296;2023-07-31T07:00:13;15.70;93.80
16313;DHT22;8265;52.622;13.296;2023-07-31T07:05:33;15.70;93.10
16313;DHT22;8265;52.622;13.296;2023-07-31T07:10:54;15.80;93.70
16313;DHT22;8265;52.622;13.296;2023-07-31T07:16:15;15.80;93.20
16313;DHT22;8265;52.622;13.296;2023-07-31T07:21:36;15.70;93.70
16313;DHT22;8265;52.622;13.296;2023-07-31T07:26:57;15.70;94.10
16313;DHT22;8265;52.622;13.296;2023-07-31T07:32:18;16.10;93.30
16313;DHT22;8265;52.622;13.296;2023-07-31T07:37:39;16.70;91.40
16313;DHT22;8265;52.622;13.296;2023-07-31T07:43:00;16.80;90.90
16313;DHT22;8265;52.622;13.296;2023-07-31T07:48:21;16.50;91.20
16313;DHT22;8265;52.622;13.296;2023-07-31T07:53:42;16.40;91.30
16313;DHT22;8265;52.622;13.296;2023-07-31T07:59:03;16.00;92.70
16313;DHT22;8265;52.622;13.296;2023-07-31T08:04:24;15.90;92.90
16313;DHT22;8265;52.622;13.296;2023-07-31T08:09:45;16.00;92.40
16313;DHT22;8265;52.622;13.296;2023-07-31T08:15:07;16.40;91.90
16313;DHT22;8265;52.622;13.296;2023-07-31T08:20:27;16.80;89.40
16313;DHT22;8265;52.622;13.296;2023-07-31T08:25:48;16.40;90.20
16313;DHT22;8265;52.622;13.296;2023-07-31T08:31:09;16.10;92.70
16313;DHT22;8265;52.622;13.296;2023-07-31T08:36:30;16.20;92.70
16313;DHT22;8265;52.622;13.296;2023-07-31T08:41:51;16.00;92.50
16313;DHT22;8265;52.622;13.296;2023-07-31T08:47:13;16.10;92.90
16313;DHT22;8265;52.622;13.296;2023-07-31T08:52:33;16.40;92.40
16313;DHT22;8265;52.622;13.296;2023-07-31T08:57:54;16.40;91.90
16313;DHT22;8265;52.622;13.296;2023-07-31T09:03:17;16.40;91.00
16313;DHT22;8265;52.622;13.296;2023-07-31T09:08:36;16.90;91.30
16313;DHT22;8265;52.622;13.296;2023-07-31T09:13:57;17.30;90.20
16313;DHT22;8265;52.622;13.296;2023-07-31T09:19:24;17.80;88.50
16313;DHT22;8265;52.622;13.296;2023-07-31T09:24:39;17.80;85.30
16313;DHT22;8265;52.622;13.296;2023-07-31T09:30:00;17.60;85.90
16313;DHT22;8265;52.622;13.296;2023-07-31T09:35:22;16.90;89.00
16313;DHT22;8265;52.622;13.296;2023-07-31T09:40:44;16.40;92.10
16313;DHT22;8265;52.622;13.296;2023-07-31T09:46:03;16.40;93.70
16313;DHT22;8265;52.622;13.296;2023-07-31T09:51:26;16.40;93.20
16313;DHT22;8265;52.622;13.296;2023-07-31T09:56:46;16.20;93.70
16313;DHT22;8265;52.622;13.296;2023-07-31T10:02:07;16.40;94.60
16313;DHT22;8265;52.622;13.296;2023-07-31T10:07:27;17.00;92.70
16313;DHT22;8265;52.622;13.296;2023-07-31T10:12:49;17.40;90.60
16313;DHT22;8265;52.622;13.296;2023-07-31T10:18:09;17.80;89.10
16313;DHT22;8265;52.622;13.296;2023-07-31T10:23:30;17.20;88.90
16313;DHT22;8265;52.622;13.296;2023-07-31T10:28:51;16.90;92.10
16313;DHT22;8265;52.622;13.296;2023-07-31T10:34:12;16.80;91.70
16313;DHT22;8265;52.622;13.296;2023-07-31T10:39:34;16.80;92.50
16313;DHT22;8265;52.622;13.296;2023-07-31T10:44:58;16.70;93.20
16313;DHT22;8265;52.622;13.296;2023-07-31T10:50:19;16.70;92.70
16313;DHT22;8265;52.622;13.296;2023-07-31T10:55:42;17.00;91.60
16313;DHT22;8265;52.622;13.296;2023-07-31T11:00:58;17.80;89.70
16313;DHT22;8265;52.622;13.296;2023-07-31T11:06:18;18.80;88.00
16313;DHT22;8265;52.622;13.296;2023-07-31T11:11:39;19.60;84.40
16313;DHT22;8265;52.622;13.296;2023-07-31T11:17:05;19.70;83.00
16313;DHT22;8265;52.622;13.296;2023-07-31T11:22:21;19.30;82.00
16313;DHT22;8265;52.622;13.296;2023-07-31T11:27:42;19.20;84.20
16313;DHT22;8265;52.622;13.296;2023-07-31T11:33:04;19.30;82.50
16313;DHT22;8265;52.622;13.296;2023-07-31T11:38:27;19.10;84.00
16313;DHT22;8265;52.622;13.296;2023-07-31T11:43:45;19.50;80.10
16313;DHT22;8265;52.622;13.296;2023-07-31T11:49:06;19.50;79.40
16313;DHT22;8265;52.622;13.296;2023-07-31T11:54:27;19.60;76.60
16313;DHT22;8265;52.622;13.296;2023-07-31T11:59:48;19.50;76.70
16313;DHT22;8265;52.622;13.296;2023-07-31T12:05:12;19.10;76.30
16313;DHT22;8265;52.622;13.296;2023-07-31T12:10:31;18.90;76.90
16313;DHT22;8265;52.622;13.296;2023-07-31T12:15:54;18.90;77.60
16313;DHT22;8265;52.622;13.296;2023-07-31T12:21:12;18.70;80.40
16313;DHT22;8265;52.622;13.296;2023-07-31T12:26:34;18.40;80.50
16313;DHT22;8265;52.622;13.296;2023-07-31T12:31:54;18.50;83.80
16313;DHT22;8265;52.622;13.296;2023-07-31T12:37:15;18.80;81.40
16313;DHT22;8265;52.622;13.296;2023-07-31T12:42:36;18.20;84.00
16313;DHT22;8265;52.622;13.296;2023-07-31T12:48:00;17.60;86.00
16313;DHT22;8265;52.622;13.296;2023-07-31T12:53:18;17.80;87.70
16313;DHT22;8265;52.622;13.296;2023-07-31T12:58:39;17.80;88.00
16313;DHT22;8265;52.622;13.296;2023-07-31T13:04:00;18.00;88.60
16313;DHT22;8265;52.622;13.296;2023-07-31T13:09:21;18.50;86.70
16313;DHT22;8265;52.622;13.296;2023-07-31T13:14:42;18.90;85.40
16313;DHT22;8265;52.622;13.296;2023-07-31T13:20:04;18.50;86.30
16313;DHT22;8265;52.622;13.296;2023-07-31T13:25:24;18.20;88.40
16313;DHT22;8265;52.622;13.296;2023-07-31T13:30:45;19.00;87.80
16313;DHT22;8265;52.622;13.296;2023-07-31T13:36:06;19.70;85.50
16313;DHT22;8265;52.622;13.296;2023-07-31T13:41:27;20.00;81.00
16313;DHT22;8265;52.622;13.296;2023-07-31T13:46:48;20.00;81.10
16313;DHT22;8265;52.622;13.296;2023-07-31T13:52:09;20.20;79.90
16313;DHT22;8265;52.622;13.296;2023-07-31T13:57:30;20.30;81.30
16313;DHT22;8265;52.622;13.296;2023-07-31T14:02:51;20.30;80.60
16313;DHT22;8265;52.622;13.296;2023-07-31T14:08:12;20.10;80.70
16313;DHT22;8265;52.622;13.296;2023-07-31T14:13:33;20.00;82.80
16313;DHT22;8265;52.622;13.296;2023-07-31T14:18:54;19.50;82.60
16313;DHT22;8265;52.622;13.296;2023-07-31T14:24:15;19.30;83.70
16313;DHT22;8265;52.622;13.296;2023-07-31T14:29:36;19.30;83.50
16313;DHT22;8265;52.622;13.296;2023-07-31T14:34:57;19.60;82.80
16313;DHT22;8265;52.622;13.296;2023-07-31T14:40:18;19.50;80.20
16313;DHT22;8265;52.622;13.296;2023-07-31T14:45:39;19.30;80.10
16313;DHT22;8265;52.622;13.296;2023-07-31T14:51:00;19.10;80.30
16313;DHT22;8265;52.622;13.296;2023-07-31T14:56:21;19.10;79.60
16313;DHT22;8265;52.622;13.296;2023-07-31T15:01:42;19.00;80.80
16313;DHT22;8265;52.622;13.296;2023-07-31T15:07:03;19.20;79.60
16313;DHT22;8265;52.622;13.296;2023-07-31T15:12:24;19.40;77.70
16313;DHT22;8265;52.622;13.296;2023-07-31T15:17:44;19.50;76.50
16313;DHT22;8265;52.622;13.296;2023-07-31T15:23:05;19.70;76.20
16313;DHT22;8265;52.622;13.296;2023-07-31T15:28:26;20.00;75.20
16313;DHT22;8265;52.622;13.296;2023-07-31T15:33:48;20.00;75.30
16313;DHT22;8265;52.622;13.296;2023-07-31T15:39:08;19.80;76.10
16313;DHT22;8265;52.622;13.296;2023-07-31T15:44:29;19.50;76.50
16313;DHT22;8265;52.622;13.296;2023-07-31T15:49:50;19.20;78.20
16313;DHT22;8265;52.622;13.296;2023-07-31T15:55:11;19.10;78.40
16313;DHT22;8265;52.622;13.296;2023-07-31T16:00:33;19.00;77.80
16313;DHT22;8265;52.622;13.296;2023-07-31T16:05:53;19.00;77.50
16313;DHT22;8265;52.622;13.296;2023-07-31T16:11:14;19.00;78.00
16313;DHT22;8265;52.622;13.296;2023-07-31T16:16:35;19.00;77.50
16313;DHT22;8265;52.622;13.296;2023-07-31T16:21:57;19.10;77.30
16313;DHT22;8265;52.622;13.296;2023-07-31T16:27:17;19.30;76.30
16313;DHT22;8265;52.622;13.296;2023-07-31T16:32:38;19.40;76.30
16313;DHT22;8265;52.622;13.296;2023-07-31T16:37:59;19.20;77.30
16313;DHT22;8265;52.622;13.296;2023-07-31T16:43:20;19.00;78.10
16313;DHT22;8265;52.622;13.296;2023-07-31T16:48:41;19.20;78.30
16313;DHT22;8265;52.622;13.296;2023-07-31T16:54:02;19.20;77.70
16313;DHT22;8265;52.622;13.296;2023-07-31T16:59:23;19.30;76.80
16313;DHT22;8265;52.622;13.296;2023-07-31T17:04:44;19.30;76.40
16313;DHT22;8265;52.622;13.296;2023-07-31T17:10:06;19.30;75.80
16313;DHT22;8265;52.622;13.296;2023-07-31T17:15:26;19.20;76.20
16313;DHT22;8265;52.622;13.296;2023-07-31T17:20:47;18.90;79.10
16313;DHT22;8265;52.622;13.296;2023-07-31T17:26:08;18.00;85.40
16313;DHT22;8265;52.622;13.296;2023-07-31T17:31:29;17.50;88.90
16313;DHT22;8265;52.622;13.296;2023-07-31T17:36:50;17.20;91.00
16313;DHT22;8265;52.622;13.296;2023-07-31T17:42:11;17.00;92.30
16313;DHT22;8265;52.622;13.296;2023-07-31T17:47:32;17.00;92.40
16313;DHT22;8265;52.622;13.296;2023-07-31T17:52:53;17.00;92.50
16313;DHT22;8265;52.622;13.296;2023-07-31T17:58:14;17.00;92.60
16313;DHT22;8265;52.622;13.296;2023-07-31T18:03:35;17.00;92.70
16313;DHT22;8265;52.622;13.296;2023-07-31T18:08:56;17.00;92.50
16313;DHT22;8265;52.622;13.296;2023-07-31T18:14:17;17.00;91.90
16313;DHT22;8265;52.622;13.296;2023-07-31T18:19:38;17.00;92.10
16313;DHT22;8265;52.622;13.296;2023-07-31T18:24:59;16.90;92.10
16313;DHT22;8265;52.622;13.296;2023-07-31T18:30:20;16.90;92.20
16313;DHT22;8265;52.622;13.296;2023-07-31T18:35:41;16.80;92.60
16313;DHT22;8265;52.622;13.296;2023-07-31T18:41:04;16.80;92.80
16313;DHT22;8265;52.622;13.296;2023-07-31T18:46:23;16.80;93.10
16313;DHT22;8265;52.622;13.296;2023-07-31T18:51:44;16.80;93.20
16313;DHT22;8265;52.622;13.296;2023-07-31T18:57:06;16.80;93.10
16313;DHT22;8265;52.622;13.296;2023-07-31T19:02:26;16.80;92.90
16313;DHT22;8265;52.622;13.296;2023-07-31T19:07:47;16.70;92.60
16313;DHT22;8265;52.622;13.296;2023-07-31T19:13:08;16.60;92.90
16313;DHT22;8265;52.622;13.296;2023-07-31T19:18:30;16.60;92.80
16313;DHT22;8265;52.622;13.296;2023-07-31T19:23:50;16.50;92.90
16313;DHT22;8265;52.622;13.296;2023-07-31T19:29:11;16.60;91.40
16313;DHT22;8265;52.622;13.296;2023-07-31T19:34:32;16.70;90.20
16313;DHT22;8265;52.622;13.296;2023-07-31T19:39:53;16.90;88.70
16313;DHT22;8265;52.622;13.296;2023-07-31T19:45:14;16.90;88.50
16313;DHT22;8265;52.622;13.296;2023-07-31T19:50:35;17.10;87.10
16313;DHT22;8265;52.622;13.296;2023-07-31T19:55:56;17.20;86.20
16313;DHT22;8265;52.622;13.296;2023-07-31T20:01:17;17.20;85.80
16313;DHT22;8265;52.622;13.296;2023-07-31T20:06:38;17.30;85.80
16313;DHT22;8265;52.622;13.296;2023-07-31T20:11:59;17.40;86.10
16313;DHT22;8265;52.622;13.296;2023-07-31T20:17:21;17.40;85.90
16313;DHT22;8265;52.622;13.296;2023-07-31T20:22:41;17.50;85.50
16313;DHT22;8265;52.622;13.296;2023-07-31T20:28:03;17.50;85.10
16313;DHT22;8265;52.622;13.296;2023-07-31T20:33:23;17.50;84.70
16313;DHT22;8265;52.622;13.296;2023-07-31T20:38:44;17.40;85.40
16313;DHT22;8265;52.622;13.296;2023-07-31T20:44:05;17.30;85.10
16313;DHT22;8265;52.622;13.296;2023-07-31T20:49:26;17.20;85.70
16313;DHT22;8265;52.622;13.296;2023-07-31T20:54:47;17.20;86.00
16313;DHT22;8265;52.622;13.296;2023-07-31T21:00:09;17.20;86.40
16313;DHT22;8265;52.622;13.296;2023-07-31T21:05:29;17.00;86.30
16313;DHT22;8265;52.622;13.296;2023-07-31T21:10:50;17.00;86.90
16313;DHT22;8265;52.622;13.296;2023-07-31T21:16:11;17.00;87.70
16313;DHT22;8265;52.622;13.296;2023-07-31T21:21:32;16.90;87.30
16313;DHT22;8265;52.622;13.296;2023-07-31T21:26:53;16.90;87.30
16313;DHT22;8265;52.622;13.296;2023-07-31T21:32:14;17.00;87.70
16313;DHT22;8265;52.622;13.296;2023-07-31T21:37:35;16.90;88.00
16313;DHT22;8265;52.622;13.296;2023-07-31T21:42:56;16.90;88.40
16313;DHT22;8265;52.622;13.296;2023-07-31T21:48:17;16.90;88.70
16313;DHT22;8265;52.622;13.296;2023-07-31T21:53:38;16.90;88.10
16313;DHT22;8265;52.622;13.296;2023-07-31T21:58:59;16.90;88.90
16313;DHT22;8265;52.622;13.296;2023-07-31T22:04:20;16.90;88.70
16313;DHT22;8265;52.622;13.296;2023-07-31T22:09:41;16.90;88.60
16313;DHT22;8265;52.622;13.296;2023-07-31T22:15:02;16.90;88.30
16313;DHT22;8265;52.622;13.296;2023-07-31T22:20:23;16.90;87.90
16313;DHT22;8265;52.622;13.296;2023-07-31T22:25:44;16.90;87.50
16313;DHT22;8265;52.622;13.296;2023-07-31T22:31:05;16.90;88.00
16313;DHT22;8265;52.622;13.296;2023-07-31T22:36:26;16.90;88.00
16313;DHT22;8265;52.622;13.296;2023-07-31T22:41:47;16.90;88.60
16313;DHT22;8265;52.622;13.296;2023-07-31T22:47:08;16.90;88.70
16313;DHT22;8265;52.622;13.296;2023-07-31T22:52:29;16.90;89.00
16313;DHT22;8265;52.622;13.296;2023-07-31T22:57:50;16.90;88.20
16313;DHT22;8265;52.622;13.296;2023-07-31T23:03:11;16.90;88.50
16313;DHT22;8265;52.622;13.296;2023-07-31T23:08:32;16.90;87.90
16313;DHT22;8265;52.622;13.296;2023-07-31T23:13:53;17.00;87.30
16313;DHT22;8265;52.622;13.296;2023-07-31T23:19:14;17.00;86.80
16313;DHT22;8265;52.622;13.296;2023-07-31T23:24:35;17.00;87.10
16313;DHT22;8265;52.622;13.296;2023-07-31T23:29:56;17.00;87.00
16313;DHT22;8265;52.622;13.296;2023-07-31T23:35:17;17.00;87.60
16313;DHT22;8265;52.622;13.296;2023-07-31T23:40:38;16.90;88.80
16313;DHT22;8265;52.622;13.296;2023-07-31T23:45:59;16.80;89.30
16313;DHT22;8265;52.622;13.296;2023-07-31T23:51:20;16.70;90.50
16313;DHT22;8265;52.622;13.296;2023-07-31T23:56:41;16.60;91.00
